Detall de PIREP

Printer-friendly versionPDF version

[2008/10/12 12:53:00]
Flight IATA:CT0001
Pilot Number:041
Company ICAO:CAT
Aircraft Type:F50/A
PAX:34
Departing Airport: LEVC
Destination Airport: LELC
Alternate Airport:LEAL
Online: VATSIM
Route:ALT1B B112 PALOS1C
Flight Level:FL090
No Slew and time accel
No pause
Crash detect
Detect pilot in Cockpit between each 30 and 45 minutes
12:53 Zero fuel Weight: 36709 Lbs, Fuel Weight: 2698 Lbs
12:53 VATSIM:LEVC 121230Z 05011KT 020V080 5000 BR FEW007 BKN012 BKN025 22/21 Q1024 NOSIG
12:53 VATSIM:LELC 121100Z 02009KT 9000 BR NSC 24/19 Q1022 NOSIG
12:56 Parking Brakes off
13:04 Take-off
13:04 Take off Weight: 39316 Lbs
13:04 Wind: 049º @ 011 Knots Heading: 114º
13:04 POS N39º 29´ 14´´ W000º 28´ 36´´
13:04 Gear Up: 149 Knots
13:04 Flaps:1 at 149 Knots
13:04 Flaps:0 at 163 Knots
13:16 TOC
13:16 Fuel Weight: 2293 Lb
13:19 Wind:016º@009 Knots Heading: 182º Ground Speed: 240
Knots Altitude 8996 ft
13:20 TOD
13:20 Fuel Weight: 2193 Lb
13:34 Wind:016º@009 Knots Heading: 175º Ground Speed: 228 Knots Altitude 3999 ft
13:49 Wind:020º@009 Knots Heading: 358º Ground Speed: 179 Knots Altitude 2227 ft
13:54 Flaps:1 at 162 Knots
13:55 Gear Down: 147 Knots
13:55 Flaps:2 at 133 Knots
13:55 Flaps:3 at 133 Knots
13:57 Flaps:4 at 107 Knots
13:58 TouchDown:Rate -125 ft/min Speed: 96 Knots
13:58 Flaps:0 at 63 Knots
13:58 VATSIM:LELC 121100Z 02009KT 9000 BR NSC 24/19 Q1022 NOSIG
13:58 Land
13:58 Wind:019º@009 Knots
13:58 Heading: 044º
13:58 Flight Duration: 00:54
13:58 Landing Weight: 38171 Lbs
13:58 POS N37º 46´ 26´´ W000º 48´ 48´´
14:01 Parking brakes on
14:01 Block to Block Duration: 01:05
14:01 Final Fuel: 1439 Lbls
14:01 Spent Fuel: 1258 Lbls
14:01 Flight Length: 190 NM
14:01 TOD Land Length: 130 NM

Exportar CSV

Powered by Drupal - Modified by Danger4k